Time;durP1;ratioP1;P1;durP2;ratioP2;P2;SDS_P1;SDS_P2;PMS_P1;PMS_P2;Temp;Humidity;BMP_temperature;BMP_pressure;BME280_temperature;BME280_humidity;BME280_pressure;Samples;Min_cycle;Max_cycle;Signal;HPM_P1;HPM_P2
2021/03/06 00:00:35;;;;;;;4.70;2.53;;;;;;;-0.92;65.43;100192.78;4953098;28;20034;-70
2021/03/06 00:03:01;;;;;;;5.18;1.95;;;;;;;-1.02;65.24;100187.19;4949106;28;20035;-70
2021/03/06 00:05:27;;;;;;;3.67;2.08;;;;;;;-0.96;65.00;100196.59;4954004;28;20069;-69
2021/03/06 00:07:52;;;;;;;2.92;1.38;;;;;;;-0.94;64.58;100200.84;4943689;28;20116;-70
2021/03/06 00:10:18;;;;;;;4.53;1.80;;;;;;;-0.93;64.96;100201.72;4953172;28;20866;-70
2021/03/06 00:12:45;;;;;;;6.20;2.53;;;;;;;-0.90;64.70;100193.53;4951488;28;20050;-69
2021/03/06 00:15:14;;;;;;;5.10;1.58;;;;;;;-0.96;65.19;100202.75;4933840;29;20422;-70
2021/03/06 00:17:39;;;;;;;3.03;1.70;;;;;;;-0.92;64.56;100206.06;4937178;28;20144;-70
2021/03/06 00:20:05;;;;;;;3.70;1.80;;;;;;;-0.95;65.18;100191.16;4935576;28;20134;-70
2021/03/06 00:22:30;;;;;;;4.38;2.42;;;;;;;-1.02;64.97;100202.25;4942081;29;20054;-69
2021/03/06 00:24:56;;;;;;;2.67;1.70;;;;;;;-1.02;65.22;100208.44;4965366;28;20039;-70
2021/03/06 00:27:22;;;;;;;3.13;1.70;;;;;;;-1.04;64.50;100194.41;4963530;28;20058;-70
2021/03/06 00:29:47;;;;;;;7.82;1.95;;;;;;;-0.94;64.55;100202.66;4938581;28;20118;-70
2021/03/06 00:32:13;;;;;;;8.70;2.47;;;;;;;-1.01;65.25;100210.16;4955495;28;20082;-69
2021/03/06 00:34:38;;;;;;;3.88;2.38;;;;;;;-1.07;65.22;100205.22;4954136;28;20042;-70
2021/03/06 00:37:03;;;;;;;4.05;1.80;;;;;;;-1.18;65.62;100202.34;4941182;28;20031;-69
2021/03/06 00:39:29;;;;;;;3.28;1.80;;;;;;;-1.17;65.43;100206.75;4954233;28;20082;-69
2021/03/06 00:41:54;;;;;;;3.00;1.88;;;;;;;-1.16;65.10;100211.09;4945505;28;20038;-69
2021/03/06 00:44:20;;;;;;;3.83;1.95;;;;;;;-1.24;65.93;100208.91;4947512;28;20036;-69
2021/03/06 00:46:45;;;;;;;4.13;2.00;;;;;;;-1.26;65.84;100202.81;4956677;28;20032;-69
2021/03/06 00:49:14;;;;;;;3.63;1.85;;;;;;;-1.32;65.65;100200.56;4942649;28;20035;-69
2021/03/06 00:51:41;;;;;;;3.13;1.92;;;;;;;-1.40;66.37;100197.50;4952423;28;20418;-70
2021/03/06 00:54:07;;;;;;;5.13;2.00;;;;;;;-1.59;66.70;100193.31;4949705;28;20453;-69
2021/03/06 00:56:32;;;;;;;4.90;1.92;;;;;;;-1.49;66.77;100203.38;4940803;29;20042;-70
2021/03/06 00:58:57;;;;;;;4.88;1.85;;;;;;;-1.56;66.30;100193.13;4953814;28;20048;-69
2021/03/06 01:01:22;;;;;;;4.40;2.30;;;;;;;-1.43;65.83;100203.88;4933645;28;20371;-69
2021/03/06 01:03:48;;;;;;;2.95;1.98;;;;;;;-1.53;66.43;100185.94;4937243;28;20042;-69
2021/03/06 01:06:13;;;;;;;4.40;2.00;;;;;;;-1.37;66.10;100200.81;4948825;28;20439;-69
2021/03/06 01:08:38;;;;;;;4.97;2.42;;;;;;;-1.40;66.00;100197.50;4951311;28;20027;-70
2021/03/06 01:11:04;;;;;;;3.38;2.00;;;;;;;-1.48;66.06;100197.97;4936719;29;20039;-69
2021/03/06 01:13:30;;;;;;;2.53;1.65;;;;;;;-1.52;66.45;100198.25;4945155;29;20524;-70
2021/03/06 01:15:55;;;;;;;5.47;2.08;;;;;;;-1.53;66.40;100193.91;4949488;28;20436;-70
2021/03/06 01:18:20;;;;;;;2.67;1.60;;;;;;;-1.55;66.66;100181.59;4951152;28;20035;-69
2021/03/06 01:20:46;;;;;;;4.18;2.13;;;;;;;-1.64;66.29;100181.28;4950482;28;20035;-69
2021/03/06 01:23:12;;;;;;;4.32;2.05;;;;;;;-1.74;66.98;100196.88;4966744;28;20138;-69
2021/03/06 01:25:38;;;;;;;4.15;1.98;;;;;;;-1.92;68.22;100195.31;4950400;28;20038;-69
2021/03/06 01:28:03;;;;;;;5.50;2.00;;;;;;;-2.08;69.04;100193.53;4946548;28;22050;-69
2021/03/06 01:30:28;;;;;;;5.22;2.10;;;;;;;-2.38;70.07;100188.22;4942456;29;20472;-71
2021/03/06 01:32:54;;;;;;;6.78;2.45;;;;;;;-2.46;71.01;100190.44;4969183;28;20061;-71
2021/03/06 01:35:24;;;;;;;4.75;2.63;;;;;;;-2.44;69.15;100188.53;4952252;28;20318;-71
2021/03/06 01:37:50;;;;;;;4.97;2.20;;;;;;;-2.46;69.74;100185.16;4955602;28;20154;-71
2021/03/06 01:40:19;;;;;;;4.82;2.30;;;;;;;-2.44;68.75;100192.06;4954376;28;20055;-71
2021/03/06 01:42:44;;;;;;;7.32;2.50;;;;;;;-2.39;69.21;100185.66;4952662;28;20035;-71
2021/03/06 01:45:10;;;;;;;6.40;2.00;;;;;;;-2.40;68.79;100183.94;4941356;29;20050;-71
2021/03/06 01:47:36;;;;;;;4.35;2.38;;;;;;;-2.23;68.10;100190.00;4962786;28;20027;-71
2021/03/06 01:50:07;;;;;;;4.05;2.17;;;;;;;-2.30;67.60;100190.44;4954557;28;20051;-71
2021/03/06 01:52:32;;;;;;;5.68;2.38;;;;;;;-2.27;67.44;100177.00;4954467;28;20031;-71
2021/03/06 01:54:58;;;;;;;6.38;1.98;;;;;;;-2.07;65.90;100191.75;4954355;28;20082;-71
2021/03/06 01:57:25;;;;;;;3.08;2.00;;;;;;;-2.02;66.67;100182.59;4942238;28;20114;-71
2021/03/06 01:59:51;;;;;;;3.97;1.67;;;;;;;-2.13;67.49;100192.09;4944827;28;20022;-71
2021/03/06 02:02:17;;;;;;;4.97;2.10;;;;;;;-2.35;66.57;100176.59;4954679;28;20532;-72
2021/03/06 02:04:42;;;;;;;4.30;2.10;;;;;;;-2.31;66.52;100189.56;4951540;28;20035;-72
2021/03/06 02:07:07;;;;;;;4.22;2.10;;;;;;;-2.51;67.43;100171.31;4988756;28;20027;-70
2021/03/06 02:09:33;;;;;;;5.43;2.35;;;;;;;-2.49;68.03;100185.28;4971799;28;20029;-71
2021/03/06 02:12:01;;;;;;;4.45;2.00;;;;;;;-2.35;67.17;100173.94;4971240;28;20492;-71
2021/03/06 02:14:43;;;;;;;3.70;2.25;;;;;;;-2.41;66.63;100183.09;4954191;29;20027;-71
2021/03/06 02:17:27;;;;;;;3.92;2.00;;;;;;;-2.35;67.89;100187.19;4945615;28;20031;-71
2021/03/06 02:20:10;;;;;;;6.10;2.17;;;;;;;-2.28;66.55;100183.22;4955378;28;20055;-71
2021/03/06 02:23:05;;;;;;;3.88;2.00;;;;;;;-2.39;67.62;100186.50;4954673;28;20035;-71
2021/03/06 02:29:16;;;;;;;4.13;1.88;;;;;;;-2.71;68.61;100173.25;4954934;28;20034;-71
2021/03/06 02:31:43;;;;;;;4.78;2.10;;;;;;;-2.88;68.26;100182.16;4954271;28;20047;-71
2021/03/06 02:34:13;;;;;;;4.32;2.10;;;;;;;-2.85;68.87;100175.84;4948933;28;20055;-71
2021/03/06 02:36:46;;;;;;;4.60;1.85;;;;;;;-2.97;69.42;100179.13;4953603;28;20061;-71
2021/03/06 02:39:14;;;;;;;2.85;2.25;;;;;;;-3.14;70.06;100161.53;4952086;28;20030;-71
2021/03/06 02:41:42;;;;;;;4.90;2.37;;;;;;;-3.01;70.98;100177.59;4951685;28;20528;-71
2021/03/06 02:44:10;;;;;;;4.13;2.30;;;;;;;-3.17;71.25;100177.56;4965878;28;20035;-72
2021/03/06 02:46:36;;;;;;;3.97;2.38;;;;;;;-3.22;71.56;100174.31;4982115;28;20031;-71
2021/03/06 02:49:02;;;;;;;6.38;2.40;;;;;;;-3.33;71.06;100172.22;4957345;28;20106;-71
2021/03/06 02:51:38;;;;;;;5.35;2.60;;;;;;;-3.45;71.39;100172.91;4952850;28;20027;-71
2021/03/06 02:54:05;;;;;;;5.97;2.55;;;;;;;-3.54;71.33;100168.94;4952704;28;20107;-71
2021/03/06 02:56:31;;;;;;;3.30;2.10;;;;;;;-3.55;71.34;100161.94;4953417;28;20501;-71
2021/03/06 02:59:34;;;;;;;5.00;2.60;;;;;;;-3.56;71.18;100165.53;4942388;28;20143;-71
2021/03/06 03:02:13;;;;;;;3.50;2.13;;;;;;;-3.59;71.53;100165.66;4953715;28;20062;-71
2021/03/06 03:04:54;;;;;;;4.97;2.65;;;;;;;-3.76;71.10;100154.19;4954901;28;20031;-71
2021/03/06 03:07:53;;;;;;;3.90;2.33;;;;;;;-3.68;72.05;100166.16;4937819;29;20035;-71
2021/03/06 03:10:20;;;;;;;5.93;2.58;;;;;;;-3.86;71.35;100167.97;4898710;29;20126;-71
2021/03/06 03:13:00;;;;;;;5.20;2.42;;;;;;;-3.83;71.64;100171.28;4951374;29;20043;-72
2021/03/06 03:15:36;;;;;;;5.63;2.33;;;;;;;-3.83;72.34;100173.09;4962336;28;20043;-70
2021/03/06 03:18:03;;;;;;;4.63;2.60;;;;;;;-3.81;73.54;100169.44;4954804;28;20026;-71
2021/03/06 03:20:43;;;;;;;4.47;2.60;;;;;;;-3.92;73.71;100179.72;4943546;28;20028;-71
2021/03/06 03:23:15;;;;;;;6.43;3.05;;;;;;;-3.86;74.55;100166.16;4940322;28;20482;-70
2021/03/06 03:25:43;;;;;;;4.50;2.70;;;;;;;-3.86;75.70;100174.09;4959455;28;20150;-71
2021/03/06 03:28:09;;;;;;;8.02;3.55;;;;;;;-3.82;76.56;100174.81;4956042;28;20045;-71
2021/03/06 03:30:36;;;;;;;8.25;3.50;;;;;;;-4.10;76.67;100165.63;4957052;28;20085;-71
2021/03/06 03:33:05;;;;;;;6.38;3.60;;;;;;;-4.13;77.25;100171.06;4963862;28;20034;-71
2021/03/06 03:35:31;;;;;;;5.88;3.20;;;;;;;-4.35;77.47;100173.91;4968547;28;20118;-71
2021/03/06 03:37:58;;;;;;;5.43;2.67;;;;;;;-4.44;77.38;100164.66;4946595;28;20042;-71
2021/03/06 03:40:24;;;;;;;6.25;3.20;;;;;;;-4.37;76.80;100177.56;4953351;28;20027;-71
2021/03/06 03:42:49;;;;;;;4.25;2.92;;;;;;;-4.43;75.86;100168.13;4962152;28;20033;-71
2021/03/06 03:45:17;;;;;;;9.65;3.30;;;;;;;-4.16;75.58;100170.38;4975749;28;20117;-71
2021/03/06 03:47:43;;;;;;;5.53;2.90;;;;;;;-4.12;75.06;100164.84;4958133;28;20027;-71
2021/03/06 03:50:11;;;;;;;4.32;2.90;;;;;;;-4.01;75.04;100177.50;4937265;28;20430;-71
2021/03/06 03:52:39;;;;;;;5.88;2.70;;;;;;;-4.08;74.65;100168.19;4962037;28;20482;-71
2021/03/06 03:55:06;;;;;;;5.43;3.08;;;;;;;-4.22;74.76;100176.78;4956404;28;20023;-71
2021/03/06 03:57:32;;;;;;;4.90;2.67;;;;;;;-4.20;75.22;100178.44;4955167;29;20158;-71
2021/03/06 03:59:59;;;;;;;7.95;2.65;;;;;;;-4.24;75.73;100179.53;4949071;28;20023;-71
2021/03/06 04:02:27;;;;;;;4.63;2.58;;;;;;;-4.39;76.16;100180.28;4961214;28;20031;-71
2021/03/06 04:04:52;;;;;;;7.10;3.00;;;;;;;-4.43;76.27;100194.56;4955397;28;20066;-71
2021/03/06 04:07:18;;;;;;;6.35;3.00;;;;;;;-4.43;76.78;100194.56;4956473;28;20063;-71
2021/03/06 04:09:43;;;;;;;3.10;2.30;;;;;;;-4.64;77.16;100191.16;4941608;28;20031;-71
2021/03/06 04:12:08;;;;;;;5.32;2.88;;;;;;;-4.74;76.51;100193.41;4948834;29;20035;-71
2021/03/06 04:14:34;;;;;;;3.95;2.47;;;;;;;-4.65;76.33;100200.03;4955953;28;20027;-71
2021/03/06 04:16:59;;;;;;;5.22;2.85;;;;;;;-4.48;75.94;100188.63;4970530;28;20113;-71
2021/03/06 04:19:24;;;;;;;4.60;2.63;;;;;;;-4.50;74.87;100191.38;4940881;28;20107;-71
2021/03/06 04:21:50;;;;;;;7.63;3.28;;;;;;;-4.58;75.72;100184.75;4955957;28;20059;-71
2021/03/06 04:24:15;;;;;;;5.60;2.63;;;;;;;-4.41;75.67;100187.41;4954346;28;20031;-71
2021/03/06 04:26:40;;;;;;;4.10;2.70;;;;;;;-4.45;76.81;100202.56;4954499;28;20035;-71
2021/03/06 04:29:05;;;;;;;5.78;2.92;;;;;;;-4.53;77.44;100201.22;4964723;28;20544;-71
2021/03/06 04:31:31;;;;;;;5.00;2.65;;;;;;;-4.74;77.68;100190.75;4943445;29;20035;-71
2021/03/06 04:33:56;;;;;;;5.97;2.85;;;;;;;-4.77;77.46;100200.59;4955960;28;20035;-71
2021/03/06 04:36:21;;;;;;;4.82;2.97;;;;;;;-4.81;78.11;100207.81;4961503;28;20026;-72
2021/03/06 04:38:47;;;;;;;4.35;2.80;;;;;;;-4.89;77.25;100202.03;4961660;28;20496;-71
2021/03/06 04:41:12;;;;;;;6.78;2.80;;;;;;;-4.86;76.78;100207.16;4967580;28;20032;-72
2021/03/06 04:43:37;;;;;;;5.65;2.50;;;;;;;-4.86;77.07;100201.88;4964864;28;20122;-71
2021/03/06 04:46:03;;;;;;;3.95;2.60;;;;;;;-4.95;76.50;100178.53;4971426;28;20425;-71
2021/03/06 04:48:28;;;;;;;5.45;2.30;;;;;;;-4.76;75.38;100200.53;4966060;28;20078;-71
2021/03/06 04:50:53;;;;;;;3.72;2.40;;;;;;;-4.77;75.37;100201.44;4956316;28;20031;-71
2021/03/06 04:53:19;;;;;;;6.35;2.55;;;;;;;-4.67;76.33;100210.63;4970603;28;20374;-71
2021/03/06 04:55:44;;;;;;;5.10;2.83;;;;;;;-4.63;76.13;100206.09;4951134;28;20122;-71
2021/03/06 04:58:09;;;;;;;5.25;3.00;;;;;;;-4.67;76.14;100197.44;4943081;29;20109;-71
2021/03/06 05:00:35;;;;;;;3.55;2.20;;;;;;;-4.66;74.93;100204.44;4946399;28;20496;-71
2021/03/06 05:03:00;;;;;;;4.63;2.60;;;;;;;-4.55;75.36;100188.09;4970340;28;20031;-71
2021/03/06 05:05:25;;;;;;;5.40;2.35;;;;;;;-4.59;74.65;100190.94;4952138;28;20038;-71
2021/03/06 05:07:51;;;;;;;4.32;2.92;;;;;;;-4.58;75.28;100201.44;4968900;28;20067;-72
2021/03/06 05:10:17;;;;;;;5.10;2.67;;;;;;;-4.61;75.09;100204.25;4942814;29;20078;-71
2021/03/06 05:12:42;;;;;;;4.97;2.88;;;;;;;-4.58;75.10;100208.53;4953134;28;20047;-71
2021/03/06 05:15:07;;;;;;;4.53;2.75;;;;;;;-4.56;74.84;100204.84;4964889;28;20027;-71
2021/03/06 05:17:33;;;;;;;3.80;2.50;;;;;;;-4.52;75.18;100206.44;4955583;28;20035;-71
2021/03/06 05:19:59;;;;;;;4.72;2.50;;;;;;;-4.56;74.48;100198.72;4955455;28;20509;-71
2021/03/06 05:22:25;;;;;;;3.67;2.35;;;;;;;-4.55;74.22;100203.09;4953810;29;20053;-71
2021/03/06 05:24:50;;;;;;;4.05;2.53;;;;;;;-4.53;74.90;100206.50;4954858;28;20043;-72
2021/03/06 05:27:16;;;;;;;5.68;2.88;;;;;;;-4.52;74.50;100197.66;4960707;28;20039;-71
2021/03/06 05:29:41;;;;;;;4.82;2.40;;;;;;;-4.51;74.60;100200.19;4957988;28;20053;-71
2021/03/06 05:32:07;;;;;;;5.95;3.13;;;;;;;-4.48;74.59;100201.84;4974146;28;20043;-71
2021/03/06 05:34:33;;;;;;;4.50;2.58;;;;;;;-4.56;74.86;100204.84;4964817;28;20031;-71
2021/03/06 05:36:59;;;;;;;6.53;2.63;;;;;;;-4.59;74.07;100206.78;4950591;28;20050;-72
2021/03/06 05:39:24;;;;;;;5.13;3.08;;;;;;;-4.55;74.67;100201.28;4946386;28;20027;-72
2021/03/06 05:41:49;;;;;;;4.85;2.97;;;;;;;-4.59;75.16;100186.50;4942858;28;20065;-72
2021/03/06 05:44:15;;;;;;;4.60;2.60;;;;;;;-4.46;74.36;100194.72;4954764;28;20668;-72
2021/03/06 05:46:42;;;;;;;4.28;2.90;;;;;;;-4.57;74.02;100189.09;4935812;28;20040;-72
2021/03/06 05:49:08;;;;;;;4.60;2.72;;;;;;;-4.50;74.09;100179.97;4936750;28;20032;-73
2021/03/06 05:51:35;;;;;;;4.10;2.92;;;;;;;-4.63;74.11;100164.69;4951993;28;20079;-74
2021/03/06 05:54:10;;;;;;;3.85;2.83;;;;;;;-4.30;73.11;100205.38;4950834;28;20031;-75
2021/03/06 05:56:40;;;;;;;4.65;2.50;;;;;;;-4.32;73.45;100192.28;4954145;28;20448;-75
2021/03/06 05:59:13;;;;;;;3.75;2.38;;;;;;;-4.38;72.91;100203.13;4954432;28;20035;-76
2021/03/06 06:01:41;;;;;;;4.78;2.63;;;;;;;-4.41;73.21;100190.06;4954524;28;20497;-75
2021/03/06 06:04:08;;;;;;;5.13;3.35;;;;;;;-4.24;72.23;100197.19;4953399;29;20034;-76
2021/03/06 06:06:35;;;;;;;6.55;2.97;;;;;;;-3.92;72.14;100214.06;4952828;28;20031;-74
2021/03/06 06:09:02;;;;;;;6.53;2.72;;;;;;;-3.82;71.92;100211.84;4951922;28;20573;-73
2021/03/06 06:11:28;;;;;;;4.10;2.45;;;;;;;-3.81;70.79;100201.16;4954242;28;20142;-73
2021/03/06 06:13:55;;;;;;;3.53;2.53;;;;;;;-3.82;70.34;100196.81;4951715;28;20494;-73
2021/03/06 06:16:21;;;;;;;4.55;2.80;;;;;;;-3.64;70.47;100208.25;4944122;29;20485;-76
2021/03/06 06:18:49;;;;;;;5.10;2.60;;;;;;;-3.35;69.17;100219.97;4954678;28;20032;-76
2021/03/06 06:21:46;;;;;;;4.80;2.83;;;;;;;-2.91;67.57;100219.41;4969269;28;20469;-76
2021/03/06 06:24:12;;;;;;;3.92;2.28;;;;;;;-1.21;63.26;100207.88;4974046;28;20090;-74
2021/03/06 06:26:39;;;;;;;4.53;2.40;;;;;;;0.97;56.91;100209.53;4949735;28;20038;-74
2021/03/06 06:29:05;;;;;;;6.38;2.60;;;;;;;2.37;53.31;100198.38;4951030;28;20162;-75
2021/03/06 06:31:31;;;;;;;3.20;2.00;;;;;;;3.60;50.02;100204.81;4952312;29;20110;-74
2021/03/06 06:33:56;;;;;;;2.88;1.88;;;;;;;4.40;47.74;100187.47;4955771;28;20450;-74
2021/03/06 06:36:33;;;;;;;3.95;1.98;;;;;;;5.67;45.39;100194.34;4941091;28;20045;-70
2021/03/06 06:38:58;;;;;;;4.38;1.90;;;;;;;5.63;44.25;100195.56;4943586;28;20023;-75
2021/03/06 06:41:24;;;;;;;3.67;1.77;;;;;;;6.50;42.55;100194.88;4953969;28;20027;-75
2021/03/06 06:43:49;;;;;;;5.43;2.20;;;;;;;7.73;41.20;100185.78;4953070;28;20027;-75
2021/03/06 06:46:30;;;;;;;4.05;2.33;;;;;;;7.93;39.67;100195.44;4966465;28;20039;-73
2021/03/06 06:48:59;;;;;;;3.70;1.92;;;;;;;8.49;39.07;100196.19;4939844;29;20510;-73
2021/03/06 06:51:24;;;;;;;5.85;2.30;;;;;;;8.47;39.05;100200.88;4952087;29;20094;-74
2021/03/06 06:53:49;;;;;;;2.72;1.92;;;;;;;9.53;37.88;100198.00;4946472;28;20039;-74
2021/03/06 06:56:25;;;;;;;4.85;1.85;;;;;;;9.77;38.32;100208.06;4946712;28;20031;-74
2021/03/06 06:58:51;;;;;;;2.97;1.92;;;;;;;9.64;37.86;100201.28;4948243;28;20094;-74
2021/03/06 07:01:33;;;;;;;5.20;1.85;;;;;;;10.42;36.76;100199.28;4944166;28;20051;-75
2021/03/06 07:04:02;;;;;;;3.47;2.03;;;;;;;10.55;36.15;100188.78;4947415;28;20019;-74
2021/03/06 07:06:27;;;;;;;3.65;1.70;;;;;;;11.17;35.37;100189.06;4952686;28;20028;-73
2021/03/06 07:09:03;;;;;;;3.80;2.10;;;;;;;11.38;34.85;100195.78;4947111;28;20036;-73
2021/03/06 07:11:29;;;;;;;4.75;1.88;;;;;;;11.38;34.56;100191.19;4963100;28;20030;-74
2021/03/06 07:13:54;;;;;;;3.35;2.05;;;;;;;12.54;33.32;100188.72;4962616;28;20031;-74
2021/03/06 07:16:19;;;;;;;4.10;2.30;;;;;;;13.63;31.67;100181.00;4946589;28;20054;-74
2021/03/06 07:18:45;;;;;;;3.65;2.22;;;;;;;12.23;32.83;100189.63;4948332;29;20391;-74
2021/03/06 07:21:10;;;;;;;7.35;2.80;;;;;;;12.80;32.02;100188.31;4939769;29;20039;-74
2021/03/06 07:23:35;;;;;;;3.20;2.13;;;;;;;14.23;30.74;100197.00;4970538;28;20035;-73
2021/03/06 07:26:01;;;;;;;4.70;2.50;;;;;;;13.23;31.87;100185.84;4970938;28;20453;-73
2021/03/06 07:28:26;;;;;;;4.38;2.60;;;;;;;14.09;30.87;100203.31;4953912;28;20501;-73
2021/03/06 07:30:55;;;;;;;3.50;2.38;;;;;;;12.49;32.57;100195.53;4956152;28;20031;-73
2021/03/06 07:33:22;;;;;;;4.45;2.67;;;;;;;12.94;32.18;100204.66;4950572;28;20062;-73
2021/03/06 07:35:48;;;;;;;4.57;2.70;;;;;;;10.80;34.11;100213.16;4954316;28;20035;-73
2021/03/06 07:38:16;;;;;;;3.72;2.30;;;;;;;11.29;34.20;100208.53;4953465;28;21805;-72
2021/03/06 07:40:47;;;;;;;5.07;2.17;;;;;;;12.31;32.71;100221.28;4957024;28;20162;-73
2021/03/06 07:43:31;;;;;;;3.67;2.30;;;;;;;11.82;33.04;100219.69;4955255;28;20071;-72
2021/03/06 07:45:58;;;;;;;4.95;2.22;;;;;;;11.93;32.17;100216.59;4954245;28;20035;-72
2021/03/06 07:48:33;;;;;;;3.63;2.42;;;;;;;12.27;32.86;100218.94;4951638;28;20094;-73
2021/03/06 07:50:59;;;;;;;3.42;2.05;;;;;;;13.24;31.65;100221.00;4961447;28;20026;-73
2021/03/06 07:53:27;;;;;;;4.75;2.50;;;;;;;13.32;30.50;100223.66;4956340;28;20043;-72
2021/03/06 07:55:53;;;;;;;3.88;2.17;;;;;;;13.85;30.26;100207.22;4948558;28;20489;-69
2021/03/06 07:58:22;;;;;;;3.50;2.20;;;;;;;13.16;30.51;100213.78;4957109;28;20094;-70
2021/03/06 08:00:56;;;;;;;3.22;2.22;;;;;;;12.63;31.76;100231.06;4957481;28;20106;-74
2021/03/06 08:03:30;;;;;;;4.15;2.30;;;;;;;13.67;30.76;100226.66;4969183;29;20034;-70
2021/03/06 08:06:22;;;;;;;5.32;2.58;;;;;;;12.67;32.09;100221.53;4992129;28;20039;-69
2021/03/06 08:08:47;;;;;;;4.53;2.45;;;;;;;12.88;31.31;100226.28;4960148;29;20031;-69
2021/03/06 08:11:23;;;;;;;6.68;2.60;;;;;;;13.44;30.83;100225.91;4954265;29;20062;-69
2021/03/06 08:13:56;;;;;;;4.38;2.70;;;;;;;12.86;30.79;100223.75;4965986;29;20054;-74
2021/03/06 08:18:49;;;;;;;7.40;2.88;;;;;;;12.49;32.22;100227.25;4974625;28;20043;-72
2021/03/06 08:21:37;;;;;;;5.97;3.10;;;;;;;13.32;31.09;100231.81;4990991;28;20042;-72
2021/03/06 08:24:24;;;;;;;7.40;4.03;;;;;;;14.40;29.98;100232.13;4969309;28;20027;-73
2021/03/06 08:27:01;;;;;;;6.75;3.30;;;;;;;14.08;29.80;100234.31;4962039;28;20030;-74
2021/03/06 08:29:27;;;;;;;4.32;2.90;;;;;;;12.54;31.72;100229.44;4970036;29;20110;-71
2021/03/06 08:32:04;;;;;;;3.53;2.55;;;;;;;11.88;32.48;100229.00;4968312;28;21326;-75
2021/03/06 08:34:36;;;;;;;4.03;2.97;;;;;;;12.25;32.64;100236.41;4965135;28;20454;-77
2021/03/06 08:37:14;;;;;;;3.53;2.40;;;;;;;12.77;32.21;100245.72;4972262;28;20027;-76
2021/03/06 08:39:47;;;;;;;4.38;2.53;;;;;;;13.28;31.51;100244.09;4969949;28;20030;-71
2021/03/06 08:42:15;;;;;;;5.78;2.80;;;;;;;13.50;30.97;100242.31;4961309;28;20038;-72
2021/03/06 08:44:41;;;;;;;3.10;2.30;;;;;;;13.36;31.29;100240.44;4943602;28;20123;-74
2021/03/06 08:47:07;;;;;;;4.35;2.53;;;;;;;13.58;30.51;100223.19;4945675;29;20026;-73
2021/03/06 08:49:33;;;;;;;3.85;2.47;;;;;;;12.87;31.06;100236.28;4953428;29;20034;-75
2021/03/06 08:51:59;;;;;;;3.60;2.25;;;;;;;11.10;33.33;100242.22;4971130;28;20023;-70
2021/03/06 08:54:25;;;;;;;3.80;2.45;;;;;;;11.88;33.35;100234.41;4957101;28;20639;-75
2021/03/06 08:56:51;;;;;;;5.28;2.55;;;;;;;12.45;32.68;100243.06;4958348;28;20200;-75
2021/03/06 08:59:16;;;;;;;5.53;2.60;;;;;;;12.75;31.09;100243.19;4955454;28;20030;-74
2021/03/06 09:01:46;;;;;;;4.65;2.72;;;;;;;12.29;32.04;100235.03;4951104;29;20110;-71
2021/03/06 09:04:12;;;;;;;5.78;2.90;;;;;;;13.27;31.19;100231.53;4946902;29;20023;-71
2021/03/06 09:06:39;;;;;;;5.05;2.80;;;;;;;13.27;30.80;100227.97;4953890;28;20027;-71
2021/03/06 09:09:09;;;;;;;4.45;2.85;;;;;;;15.32;28.92;100234.03;4952407;28;20039;-71
2021/03/06 09:11:35;;;;;;;3.03;2.28;;;;;;;14.76;29.63;100225.84;4952473;28;20038;-72
2021/03/06 09:14:00;;;;;;;4.45;2.58;;;;;;;14.55;29.31;100232.13;4952057;28;20474;-71
2021/03/06 09:16:26;;;;;;;4.03;2.20;;;;;;;13.64;29.78;100216.16;4950443;28;20114;-71
2021/03/06 09:18:51;;;;;;;3.80;2.13;;;;;;;13.81;30.19;100233.13;4975202;28;20068;-71
2021/03/06 09:21:25;;;;;;;3.50;2.25;;;;;;;14.59;28.88;100239.72;4954806;28;20046;-72
2021/03/06 09:23:54;;;;;;;3.83;2.13;;;;;;;13.80;29.31;100229.53;4962836;28;20053;-71
2021/03/06 09:26:22;;;;;;;3.88;2.20;;;;;;;13.56;29.57;100229.84;4942510;28;20045;-71
2021/03/06 09:28:50;;;;;;;4.53;2.03;;;;;;;12.68;30.71;100215.06;4942080;28;20067;-71
2021/03/06 09:31:24;;;;;;;3.25;2.10;;;;;;;12.76;30.81;100236.75;4955063;28;20053;-71
2021/03/06 09:33:50;;;;;;;2.65;1.98;;;;;;;13.34;30.33;100227.03;4966493;28;20037;-72
2021/03/06 09:36:21;;;;;;;3.75;1.90;;;;;;;14.55;28.68;100227.50;4973362;28;20026;-71
2021/03/06 09:38:53;;;;;;;5.80;2.20;;;;;;;15.15;28.24;100229.94;4971600;28;20019;-71
2021/03/06 09:41:33;;;;;;;3.50;1.85;;;;;;;15.21;27.27;100212.78;4953100;29;20505;-72
2021/03/06 09:44:00;;;;;;;4.03;2.00;;;;;;;13.81;28.88;100231.25;4970489;28;20421;-72
2021/03/06 09:46:30;;;;;;;2.78;1.90;;;;;;;14.13;28.53;100234.56;4955087;28;20118;-71
2021/03/06 09:48:56;;;;;;;3.80;2.28;;;;;;;14.25;28.48;100227.59;4957430;28;20027;-71
2021/03/06 09:51:24;;;;;;;2.30;1.73;;;;;;;13.72;28.56;100217.94;4939710;28;20113;-71
2021/03/06 09:53:57;;;;;;;2.63;1.77;;;;;;;13.50;28.86;100231.44;4947308;28;20019;-71
2021/03/06 09:56:23;;;;;;;5.03;2.10;;;;;;;13.37;29.13;100210.34;4954863;28;20027;-72
2021/03/06 09:58:57;;;;;;;4.68;2.17;;;;;;;14.02;27.98;100229.63;4955282;28;20059;-71
2021/03/06 10:01:23;;;;;;;2.97;1.80;;;;;;;15.26;27.44;100215.75;4954322;28;20538;-72
2021/03/06 10:03:49;;;;;;;3.30;1.50;;;;;;;14.61;27.71;100224.00;4943838;28;20059;-71
2021/03/06 10:06:21;;;;;;;3.38;1.90;;;;;;;14.53;28.04;100224.13;4947341;28;20042;-71
2021/03/06 10:08:58;;;;;;;3.38;2.00;;;;;;;15.25;27.51;100225.81;4955245;28;20066;-71
2021/03/06 10:11:35;;;;;;;3.40;2.38;;;;;;;15.25;28.24;100219.53;4948540;28;20030;-72
2021/03/06 10:14:01;;;;;;;4.18;2.53;;;;;;;14.47;28.13;100216.72;4955126;28;20027;-71
2021/03/06 10:16:27;;;;;;;3.20;2.13;;;;;;;13.77;28.99;100210.88;4955466;28;20062;-71
2021/03/06 10:18:53;;;;;;;4.50;2.60;;;;;;;15.52;28.42;100210.44;4956607;28;20023;-71
2021/03/06 10:21:21;;;;;;;3.60;2.00;;;;;;;16.05;26.75;100200.84;4946572;28;20105;-71
2021/03/06 10:23:49;;;;;;;3.47;2.47;;;;;;;15.48;26.40;100214.66;4958907;28;20157;-71
2021/03/06 10:26:20;;;;;;;3.33;2.33;;;;;;;15.06;27.75;100216.44;4960976;28;20035;-71
2021/03/06 10:28:47;;;;;;;3.28;1.92;;;;;;;15.99;26.83;100200.63;4944705;28;20078;-72
2021/03/06 10:31:32;;;;;;;4.70;2.28;;;;;;;16.11;26.65;100214.53;4954709;28;20034;-72
2021/03/06 10:33:59;;;;;;;4.40;1.80;;;;;;;16.96;25.48;100189.47;4949292;28;20031;-72
2021/03/06 10:36:25;;;;;;;4.25;1.85;;;;;;;16.69;25.10;100202.25;4958926;28;20042;-72
2021/03/06 10:39:10;;;;;;;2.65;2.05;;;;;;;17.41;24.94;100192.34;4965493;28;20031;-72
2021/03/06 10:41:36;;;;;;;3.47;1.85;;;;;;;16.64;25.89;100200.16;4957638;28;20039;-73
2021/03/06 10:44:01;;;;;;;2.78;1.70;;;;;;;16.96;25.10;100194.94;4945048;28;20094;-71
2021/03/06 10:46:34;;;;;;;2.85;1.80;;;;;;;17.16;25.10;100200.38;4973012;28;20152;-72
2021/03/06 10:49:02;;;;;;;3.88;1.83;;;;;;;16.53;25.34;100201.63;4960409;28;20031;-72
2021/03/06 10:51:49;;;;;;;4.30;1.75;;;;;;;17.15;24.78;100196.81;4963793;28;20035;-71
2021/03/06 10:54:15;;;;;;;2.90;1.52;;;;;;;17.84;24.22;100194.56;4961864;29;20027;-72
2021/03/06 10:56:41;;;;;;;3.15;1.88;;;;;;;16.79;25.11;100189.03;4965212;28;20029;-72
2021/03/06 10:59:07;;;;;;;2.53;1.50;;;;;;;18.31;23.79;100197.91;4967440;28;20027;-72
2021/03/06 11:01:45;;;;;;;2.67;1.70;;;;;;;17.78;23.89;100192.66;4970551;28;20034;-73
2021/03/06 11:04:43;;;;;;;3.35;1.63;;;;;;;17.53;23.53;100191.47;4970941;29;20043;-72
2021/03/06 11:07:09;;;;;;;3.08;1.40;;;;;;;17.27;23.90;100167.75;4951881;29;20099;-72
2021/03/06 11:09:36;;;;;;;1.98;1.20;;;;;;;16.78;23.49;100190.94;4968856;28;20023;-72
2021/03/06 11:12:23;;;;;;;2.33;1.30;;;;;;;15.47;24.63;100174.75;4955117;28;20119;-71
2021/03/06 11:15:04;;;;;;;2.15;1.20;;;;;;;14.84;24.59;100187.53;4953775;29;20027;-71
2021/03/06 11:17:29;;;;;;;1.95;1.40;;;;;;;14.79;26.12;100184.56;4959940;28;20027;-72
2021/03/06 11:19:54;;;;;;;2.22;1.38;;;;;;;13.98;25.97;100169.28;4958802;29;20030;-71
2021/03/06 11:22:20;;;;;;;2.70;1.40;;;;;;;15.53;24.62;100173.09;4954692;28;20036;-71
2021/03/06 11:24:45;;;;;;;1.83;1.23;;;;;;;15.68;24.07;100172.97;4944667;28;20024;-71
2021/03/06 11:27:10;;;;;;;1.85;1.30;;;;;;;14.94;25.05;100163.53;4955457;28;20030;-71
2021/03/06 11:29:35;;;;;;;4.20;1.60;;;;;;;14.14;24.89;100160.03;4954520;28;20043;-71
2021/03/06 11:32:01;;;;;;;1.65;1.25;;;;;;;13.56;26.22;100167.31;4949832;28;20026;-72
2021/03/06 11:34:26;;;;;;;2.50;1.35;;;;;;;14.67;25.24;100166.03;4940352;28;20111;-71
2021/03/06 11:36:51;;;;;;;3.55;1.40;;;;;;;14.62;24.08;100159.50;4966802;28;20792;-71
2021/03/06 11:39:17;;;;;;;1.58;0.98;;;;;;;14.96;23.63;100145.09;4947199;28;20070;-71